Time;durP1;ratioP1;P1;durP2;ratioP2;P2;SDS_P1;SDS_P2;PMS_P1;PMS_P2;Temp;Humidity;BMP_temperature;BMP_pressure;BME280_temperature;BME280_humidity;BME280_pressure;Samples;Min_cycle;Max_cycle;Signal;HPM_P1;HPM_P2
2022/02/26 00:01:58;;;;;;;55.88;28.13;;;;;;;0.46;90.58;97660.81;5025908;28;20115;-84
2022/02/26 00:04:35;;;;;;;60.65;27.67;;;;;;;0.36;91.24;97661.91;5009355;28;20112;-83
2022/02/26 00:07:01;;;;;;;55.72;26.67;;;;;;;0.35;90.79;97658.41;5026150;28;20044;-84
2022/02/26 00:09:27;;;;;;;62.72;29.38;;;;;;;0.25;91.06;97645.44;5023586;28;20386;-84
2022/02/26 00:11:52;;;;;;;65.38;30.88;;;;;;;0.26;91.47;97650.69;5026260;28;20106;-84
2022/02/26 00:14:18;;;;;;;74.65;33.88;;;;;;;0.28;91.58;97650.66;5026871;28;20024;-84
2022/02/26 00:16:43;;;;;;;79.38;36.17;;;;;;;0.35;90.92;97650.50;5043190;28;20035;-84
2022/02/26 00:19:09;;;;;;;86.53;38.65;;;;;;;0.31;90.17;97640.94;5028546;28;20025;-83
2022/02/26 00:21:34;;;;;;;91.50;38.13;;;;;;;0.23;89.40;97627.09;5026600;28;20028;-83
2022/02/26 00:24:00;;;;;;;121.85;51.40;;;;;;;0.29;89.64;97637.47;5028976;28;20033;-83
2022/02/26 00:26:25;;;;;;;82.38;35.88;;;;;;;0.24;90.23;97636.72;5031192;28;20516;-83
2022/02/26 00:28:51;;;;;;;62.63;28.67;;;;;;;0.11;91.73;97622.06;5033889;28;20035;-82
2022/02/26 00:31:17;;;;;;;57.15;26.67;;;;;;;0.03;91.24;97621.38;5028861;28;20029;-84
2022/02/26 00:33:43;;;;;;;49.28;22.17;;;;;;;-0.01;91.09;97620.56;5030254;28;20040;-84
2022/02/26 00:36:08;;;;;;;33.58;15.73;;;;;;;-0.11;92.26;97616.34;5028155;28;20040;-83
2022/02/26 00:38:34;;;;;;;41.42;15.73;;;;;;;-0.12;92.57;97614.63;5023609;28;20027;-84
2022/02/26 00:41:00;;;;;;;34.92;16.17;;;;;;;-0.16;93.74;97612.97;5027278;28;20400;-84
2022/02/26 00:43:25;;;;;;;37.65;16.13;;;;;;;-0.17;94.19;97615.59;5050277;28;20031;-83
2022/02/26 00:45:51;;;;;;;34.38;17.23;;;;;;;-0.19;94.68;97599.00;5031061;28;20127;-83
2022/02/26 00:48:17;;;;;;;47.03;19.33;;;;;;;-0.11;94.20;97612.84;5030717;28;20090;-82
2022/02/26 00:50:42;;;;;;;40.28;18.67;;;;;;;-0.09;93.90;97611.06;5026656;28;20055;-85
2022/02/26 00:53:08;;;;;;;37.90;18.92;;;;;;;0.00;94.19;97631.94;5026267;28;20040;-84
2022/02/26 00:55:34;;;;;;;46.22;21.92;;;;;;;-0.02;93.45;97633.72;5043743;28;20017;-84
2022/02/26 00:58:02;;;;;;;53.45;25.95;;;;;;;0.00;93.29;97630.16;5031025;28;20021;-84
2022/02/26 01:00:28;;;;;;;53.33;24.67;;;;;;;0.08;92.91;97647.56;5025449;28;20089;-84
2022/02/26 01:02:53;;;;;;;70.50;30.38;;;;;;;0.10;92.21;97632.59;5023572;28;20113;-84
2022/02/26 01:05:19;;;;;;;65.13;27.60;;;;;;;0.08;92.24;97629.16;5028813;28;20036;-84
2022/02/26 01:07:46;;;;;;;62.17;27.13;;;;;;;0.06;91.08;97630.94;5028369;28;20029;-84
2022/02/26 01:10:12;;;;;;;72.00;30.38;;;;;;;0.02;91.84;97621.38;5026894;28;20052;-84
2022/02/26 01:12:38;;;;;;;59.88;25.52;;;;;;;0.06;90.86;97623.06;5020510;28;20428;-84
2022/02/26 01:15:05;;;;;;;59.67;24.20;;;;;;;0.06;90.93;97623.94;5024072;28;20112;-85
2022/02/26 01:17:31;;;;;;;55.40;25.17;;;;;;;0.12;90.71;97639.59;5032643;28;20484;-85
2022/02/26 01:19:57;;;;;;;42.53;20.45;;;;;;;0.06;91.21;97629.19;5025844;28;20033;-85
2022/02/26 01:22:23;;;;;;;36.42;17.23;;;;;;;0.02;90.68;97630.13;5024154;28;20041;-84
2022/02/26 01:24:49;;;;;;;39.50;18.40;;;;;;;-0.03;91.91;97640.72;5027487;28;20411;-83
2022/02/26 01:27:14;;;;;;;37.30;19.65;;;;;;;-0.15;92.70;97635.69;5026137;28;20036;-85
2022/02/26 01:29:40;;;;;;;44.55;20.65;;;;;;;-0.17;93.60;97634.88;5026510;28;20081;-84
2022/02/26 01:32:06;;;;;;;43.28;20.95;;;;;;;-0.26;93.99;97642.06;5029166;28;20480;-83
2022/02/26 01:34:32;;;;;;;38.70;19.83;;;;;;;-0.23;94.98;97637.63;5027765;28;20032;-84
2022/02/26 01:36:57;;;;;;;34.05;17.55;;;;;;;-0.22;94.82;97641.13;5028404;28;20501;-83
2022/02/26 01:39:24;;;;;;;41.88;18.90;;;;;;;-0.19;94.74;97633.19;5023906;28;20489;-83
2022/02/26 01:41:56;;;;;;;44.63;18.95;;;;;;;-0.12;94.45;97640.03;5033965;28;20024;-83
2022/02/26 01:44:22;;;;;;;43.83;19.27;;;;;;;-0.20;94.12;97632.31;5024143;28;20023;-84
2022/02/26 01:46:55;;;;;;;39.40;19.90;;;;;;;-0.20;94.73;97641.94;5032014;28;20024;-84
2022/02/26 01:49:20;;;;;;;45.22;22.80;;;;;;;-0.26;95.35;97647.31;5046372;28;20062;-84
2022/02/26 01:51:46;;;;;;;43.63;21.73;;;;;;;-0.24;95.78;97635.00;5022555;28;20102;-83
2022/02/26 01:54:12;;;;;;;48.53;21.95;;;;;;;-0.25;96.44;97655.19;5028360;28;20024;-84
2022/02/26 01:56:38;;;;;;;63.30;27.35;;;;;;;-0.23;97.22;97657.75;5026165;28;20032;-83
2022/02/26 01:59:03;;;;;;;69.20;33.28;;;;;;;-0.24;96.91;97656.03;5033269;28;20031;-85
2022/02/26 02:01:29;;;;;;;64.35;29.25;;;;;;;-0.17;97.07;97668.16;5030565;28;20548;-84
2022/02/26 02:03:55;;;;;;;51.38;25.90;;;;;;;-0.24;97.13;97658.66;5021600;28;20029;-83
2022/02/26 02:06:21;;;;;;;49.28;24.60;;;;;;;-0.27;96.96;97661.34;5028331;28;20036;-84
2022/02/26 02:08:47;;;;;;;51.33;24.30;;;;;;;-0.31;97.79;97664.94;5029168;28;20029;-84
2022/02/26 02:11:13;;;;;;;41.28;19.23;;;;;;;-0.30;96.58;97667.50;5044772;28;20101;-83
2022/02/26 02:13:39;;;;;;;40.05;20.35;;;;;;;-0.39;96.65;97674.69;5042272;28;20049;-83
2022/02/26 02:16:05;;;;;;;48.80;21.70;;;;;;;-0.41;98.14;97668.59;5024435;28;20459;-84
2022/02/26 02:18:30;;;;;;;46.55;21.27;;;;;;;-0.40;97.56;97676.44;5015086;28;20503;-84
2022/02/26 02:20:57;;;;;;;41.65;19.10;;;;;;;-0.47;98.11;97660.81;5022589;28;20024;-84
2022/02/26 02:23:24;;;;;;;36.50;16.52;;;;;;;-0.47;97.00;97677.47;5030004;28;20063;-84
2022/02/26 02:25:52;;;;;;;34.03;14.57;;;;;;;-0.46;96.03;97675.69;5029232;28;20032;-84
2022/02/26 02:28:17;;;;;;;31.67;14.98;;;;;;;-0.42;95.08;97682.63;5027561;28;20032;-84
2022/02/26 02:30:43;;;;;;;28.88;14.60;;;;;;;-0.45;95.52;97698.44;5029061;28;20036;-83
2022/02/26 02:33:09;;;;;;;29.13;14.55;;;;;;;-0.49;95.72;97681.00;5028340;28;20512;-84
2022/02/26 02:35:39;;;;;;;29.10;14.48;;;;;;;-0.48;96.32;97687.97;5031432;28;20039;-84
2022/02/26 02:38:16;;;;;;;34.40;15.25;;;;;;;-0.45;97.12;97682.66;5026164;28;20032;-84
2022/02/26 02:40:44;;;;;;;36.58;15.85;;;;;;;-0.55;97.14;97674.94;5028565;28;20029;-84
2022/02/26 02:43:12;;;;;;;30.02;16.00;;;;;;;-0.60;96.73;97681.16;5025853;28;20531;-85
2022/02/26 02:45:39;;;;;;;43.83;18.92;;;;;;;-0.60;97.90;97692.53;5021828;28;20028;-84
2022/02/26 02:48:05;;;;;;;35.95;19.52;;;;;;;-0.66;98.64;97690.00;5029248;28;20182;-84
2022/02/26 02:50:31;;;;;;;42.78;19.30;;;;;;;-0.62;99.16;97696.97;5017936;28;20029;-84
2022/02/26 02:52:58;;;;;;;37.42;18.52;;;;;;;-0.64;99.57;97708.34;5026853;28;20032;-84
2022/02/26 02:55:23;;;;;;;43.40;19.85;;;;;;;-0.78;99.85;97700.72;5019958;28;20041;-83
2022/02/26 02:57:50;;;;;;;43.15;19.73;;;;;;;-0.81;100.00;97694.63;5023678;28;20028;-83
2022/02/26 03:00:17;;;;;;;38.85;19.48;;;;;;;-0.75;100.00;97711.16;5027596;28;20554;-83
2022/02/26 03:02:43;;;;;;;44.95;19.88;;;;;;;-0.78;100.00;97707.72;5023911;28;20040;-83
2022/02/26 03:05:10;;;;;;;40.00;19.48;;;;;;;-0.77;100.00;97707.66;5028308;28;20035;-84
2022/02/26 03:07:36;;;;;;;45.08;19.77;;;;;;;-0.77;100.00;97718.16;5044180;28;20025;-84
2022/02/26 03:10:03;;;;;;;43.50;20.05;;;;;;;-0.77;100.00;97702.41;5029534;28;20062;-84
2022/02/26 03:12:29;;;;;;;42.15;19.80;;;;;;;-0.71;100.00;97720.72;5030823;28;20045;-84
2022/02/26 03:14:54;;;;;;;43.83;21.60;;;;;;;-0.67;100.00;97714.53;5026661;28;20029;-84
2022/02/26 03:17:20;;;;;;;49.60;21.27;;;;;;;-0.66;100.00;97720.66;5027050;28;20025;-84
2022/02/26 03:19:49;;;;;;;45.88;21.27;;;;;;;-0.67;100.00;97719.78;5042856;28;20100;-84
2022/02/26 03:22:18;;;;;;;54.75;24.35;;;;;;;-0.58;100.00;97724.00;5025541;28;20487;-83
2022/02/26 03:24:45;;;;;;;52.53;23.25;;;;;;;-0.56;100.00;97727.50;5025164;28;20049;-84
2022/02/26 03:27:11;;;;;;;54.45;25.27;;;;;;;-0.57;100.00;97721.38;5028534;28;20398;-85
2022/02/26 03:29:37;;;;;;;73.72;30.80;;;;;;;-0.55;100.00;97719.59;5025338;28;20084;-86
2022/02/26 03:32:04;;;;;;;110.50;45.15;;;;;;;-0.36;99.89;97740.31;5011376;28;20044;-85
2022/02/26 03:34:30;;;;;;;82.15;37.75;;;;;;;-0.36;99.05;97743.81;5019310;28;20025;-84
2022/02/26 03:36:57;;;;;;;98.82;39.10;;;;;;;-0.37;99.20;97749.09;5022230;28;20029;-83
2022/02/26 03:39:23;;;;;;;82.80;37.33;;;;;;;-0.33;99.10;97749.00;5011177;28;20036;-83
2022/02/26 03:41:49;;;;;;;84.15;37.00;;;;;;;-0.30;98.83;97750.72;5041532;28;20029;-84
2022/02/26 03:44:15;;;;;;;83.68;36.67;;;;;;;-0.29;98.90;97744.59;5026158;28;20055;-85
2022/02/26 03:46:41;;;;;;;66.95;32.47;;;;;;;-0.24;98.63;97758.50;5028961;28;20480;-85
2022/02/26 03:49:07;;;;;;;70.43;30.33;;;;;;;-0.18;98.15;97767.16;5042156;28;20029;-84
2022/02/26 03:51:34;;;;;;;77.80;35.05;;;;;;;-0.21;97.86;97764.59;5017578;28;20114;-84
2022/02/26 03:53:59;;;;;;;74.80;33.33;;;;;;;-0.23;98.12;97768.13;5023688;28;20031;-84
2022/02/26 03:56:27;;;;;;;72.57;31.00;;;;;;;-0.22;98.06;97777.78;5029631;28;20120;-84
2022/02/26 03:58:54;;;;;;;60.72;28.98;;;;;;;-0.30;98.37;97783.13;5023551;28;20052;-87
2022/02/26 04:01:20;;;;;;;66.15;29.80;;;;;;;-0.36;98.02;97788.47;5030321;28;20409;-84
2022/02/26 04:03:46;;;;;;;76.45;32.53;;;;;;;-0.38;98.32;97792.03;5024441;28;20477;-84
2022/02/26 04:06:13;;;;;;;78.90;36.28;;;;;;;-0.42;98.87;97785.94;5025888;28;20183;-85
2022/02/26 04:08:38;;;;;;;80.72;33.20;;;;;;;-0.44;99.01;97784.25;5021579;28;20033;-83
2022/02/26 04:11:04;;;;;;;97.70;34.63;;;;;;;-0.48;99.06;97793.91;5026526;28;20032;-83
2022/02/26 04:13:29;;;;;;;60.17;27.10;;;;;;;-0.49;98.83;97788.69;5043519;28;20044;-84
2022/02/26 04:15:55;;;;;;;55.67;23.95;;;;;;;-0.56;99.22;97790.53;5034393;28;20413;-83
2022/02/26 04:18:20;;;;;;;52.05;24.13;;;;;;;-0.59;98.75;97783.59;5026622;28;20060;-83
2022/02/26 04:20:46;;;;;;;51.65;24.55;;;;;;;-0.59;98.59;97785.34;5022913;28;20022;-84
2022/02/26 04:23:12;;;;;;;57.53;25.30;;;;;;;-0.61;98.95;97793.22;5028018;28;20028;-85
2022/02/26 04:25:37;;;;;;;61.90;24.92;;;;;;;-0.67;98.62;97772.31;5026838;28;20029;-83
2022/02/26 04:28:03;;;;;;;50.25;24.60;;;;;;;-0.49;99.10;97796.59;5026629;28;20113;-85
2022/02/26 04:30:29;;;;;;;56.42;25.67;;;;;;;-0.57;98.98;97783.53;5026703;28;20024;-83
2022/02/26 04:32:54;;;;;;;51.17;24.13;;;;;;;-0.59;98.13;97790.59;5023429;28;20039;-84
2022/02/26 04:35:20;;;;;;;54.60;23.92;;;;;;;-0.73;98.19;97788.16;5024379;28;20157;-85
2022/02/26 04:37:46;;;;;;;46.20;22.08;;;;;;;-0.94;99.05;97780.56;5042118;28;20032;-84
2022/02/26 04:40:12;;;;;;;51.10;22.13;;;;;;;-1.04;99.62;97784.19;5027769;28;20511;-84
2022/02/26 04:42:38;;;;;;;48.90;21.65;;;;;;;-1.16;100.00;97771.22;5021945;28;20028;-84
2022/02/26 04:45:08;;;;;;;49.67;22.23;;;;;;;-1.14;100.00;97795.69;5025415;28;20112;-84
2022/02/26 04:47:34;;;;;;;51.20;21.00;;;;;;;-1.28;100.00;97774.00;5024529;28;20044;-84
2022/02/26 04:49:59;;;;;;;49.00;21.60;;;;;;;-1.21;100.00;97788.78;5021434;28;20436;-84
2022/02/26 04:52:25;;;;;;;44.55;19.90;;;;;;;-1.05;100.00;97820.97;5037479;28;20025;-83
2022/02/26 04:54:50;;;;;;;44.40;20.48;;;;;;;-1.02;100.00;97820.91;5023196;28;20053;-83
2022/02/26 04:57:16;;;;;;;50.22;21.33;;;;;;;-0.96;100.00;97821.72;5027784;28;20056;-84
2022/02/26 04:59:41;;;;;;;43.78;21.42;;;;;;;-0.93;100.00;97811.19;5023270;28;20033;-83
2022/02/26 05:02:07;;;;;;;45.20;22.10;;;;;;;-0.89;100.00;97818.09;5027314;28;20037;-83
2022/02/26 05:04:32;;;;;;;50.42;22.67;;;;;;;-0.96;100.00;97811.22;5040109;28;20028;-83
2022/02/26 05:07:01;;;;;;;43.67;21.45;;;;;;;-0.81;100.00;97837.28;5028200;28;20070;-84
2022/02/26 05:09:26;;;;;;;51.90;22.40;;;;;;;-0.74;100.00;97843.31;5022883;28;20112;-84
2022/02/26 05:11:52;;;;;;;47.83;22.73;;;;;;;-0.76;100.00;97839.81;5022966;28;20080;-82
2022/02/26 05:14:17;;;;;;;53.00;25.35;;;;;;;-0.69;100.00;97858.13;5023891;28;20037;-84
2022/02/26 05:16:44;;;;;;;66.22;26.83;;;;;;;-0.68;100.00;97851.13;5022349;28;20032;-83
2022/02/26 05:19:09;;;;;;;92.28;41.60;;;;;;;-0.54;100.00;97862.31;5022757;28;20045;-81
2022/02/26 05:21:35;;;;;;;81.32;36.08;;;;;;;-0.48;100.00;97866.59;5037171;28;20439;-83
2022/02/26 05:24:01;;;;;;;109.13;44.92;;;;;;;-0.49;99.33;97849.13;5036946;28;20040;-86
2022/02/26 05:26:26;;;;;;;82.20;37.33;;;;;;;-0.59;99.36;97841.38;5029444;28;20107;-87
2022/02/26 05:28:52;;;;;;;86.65;37.55;;;;;;;-0.46;98.98;97865.69;5024002;28;20021;-84
2022/02/26 05:31:17;;;;;;;72.28;34.35;;;;;;;-0.37;98.60;97875.22;5021686;28;20029;-86
2022/02/26 05:33:43;;;;;;;82.28;33.75;;;;;;;-0.38;98.72;97873.47;5026372;28;20056;-85
2022/02/26 05:36:09;;;;;;;58.53;26.23;;;;;;;-0.34;98.31;97877.81;5026056;28;20025;-84
2022/02/26 05:38:34;;;;;;;72.18;32.05;;;;;;;-0.25;97.71;97889.06;5042189;28;20480;-83
2022/02/26 05:41:00;;;;;;;87.68;31.67;;;;;;;-0.21;96.94;97903.00;5039312;28;20021;-85
2022/02/26 05:43:25;;;;;;;80.15;32.58;;;;;;;-0.20;96.06;97897.75;5040519;28;20025;-83
2022/02/26 05:45:51;;;;;;;82.57;31.55;;;;;;;-0.15;95.58;97898.53;5028151;28;20031;-86
2022/02/26 05:48:16;;;;;;;90.15;32.10;;;;;;;-0.05;95.53;97908.03;5037696;28;20021;-85
2022/02/26 05:50:42;;;;;;;69.15;31.50;;;;;;;0.14;94.25;97913.00;5022862;28;20025;-85
2022/02/26 05:53:08;;;;;;;84.63;36.10;;;;;;;0.13;93.39;97899.00;5024693;28;20029;-85
2022/02/26 05:55:38;;;;;;;77.35;34.20;;;;;;;0.23;93.49;97911.13;5008615;28;20394;-85
2022/02/26 05:58:04;;;;;;;73.30;30.42;;;;;;;0.40;92.50;97909.06;5037366;28;20021;-85
2022/02/26 06:00:29;;;;;;;104.65;37.22;;;;;;;0.88;91.74;97925.81;5023472;28;20117;-83
2022/02/26 06:02:55;;;;;;;70.00;29.40;;;;;;;1.86;83.39;97908.91;5021349;28;20401;-83
2022/02/26 06:05:21;;;;;;;58.72;25.33;;;;;;;2.21;81.34;97919.56;5022227;28;20032;-85
2022/02/26 06:07:46;;;;;;;59.40;26.85;;;;;;;2.74;78.33;97911.22;5039020;28;20488;-82
2022/02/26 06:10:12;;;;;;;53.47;25.52;;;;;;;3.68;73.39;97902.47;5032109;28;20032;-88
2022/02/26 06:12:37;;;;;;;58.58;25.55;;;;;;;4.49;69.77;97914.94;5013019;28;20052;-87
2022/02/26 06:15:04;;;;;;;98.57;45.95;;;;;;;5.84;63.21;97900.50;5029599;28;20028;-86
2022/02/26 06:17:30;;;;;;;95.43;46.17;;;;;;;7.50;56.47;97882.13;5043855;28;20504;-84
2022/02/26 06:19:59;;;;;;;71.32;35.70;;;;;;;8.38;52.88;97877.19;5025884;28;20029;-84
2022/02/26 06:22:25;;;;;;;61.92;31.45;;;;;;;9.13;49.79;97865.41;5023676;28;20033;-83
2022/02/26 06:24:51;;;;;;;68.45;34.75;;;;;;;10.16;46.99;97857.22;5026232;28;20406;-83
2022/02/26 06:27:16;;;;;;;65.07;34.08;;;;;;;11.60;43.63;97859.44;5026073;28;20393;-85
2022/02/26 06:29:42;;;;;;;65.82;30.83;;;;;;;12.07;41.47;97848.50;5022395;28;20029;-85
2022/02/26 06:32:08;;;;;;;56.65;30.70;;;;;;;11.96;41.47;97851.00;5042733;28;20032;-85
2022/02/26 06:34:33;;;;;;;49.65;28.73;;;;;;;12.20;40.54;97848.56;5030359;28;20028;-83
2022/02/26 06:36:59;;;;;;;46.17;26.08;;;;;;;12.93;39.05;97850.00;5041433;28;20040;-84
2022/02/26 06:39:24;;;;;;;50.13;27.33;;;;;;;12.66;39.48;97841.97;5027760;28;20032;-85
2022/02/26 06:41:50;;;;;;;49.85;26.67;;;;;;;12.91;39.47;97847.44;5025920;28;20022;-84
2022/02/26 06:44:16;;;;;;;51.58;27.25;;;;;;;13.85;38.03;97846.34;5025967;28;20060;-83
2022/02/26 06:46:43;;;;;;;47.95;27.23;;;;;;;13.91;37.04;97853.09;5022638;28;20507;-84
2022/02/26 06:49:09;;;;;;;48.78;27.23;;;;;;;13.71;36.89;97845.59;5025209;28;20083;-84
2022/02/26 06:51:35;;;;;;;53.15;30.00;;;;;;;13.83;36.95;97864.41;5023831;28;20031;-83
2022/02/26 06:54:01;;;;;;;62.08;32.33;;;;;;;14.15;36.70;97862.13;5040977;28;20099;-85
2022/02/26 06:56:27;;;;;;;60.42;28.88;;;;;;;13.78;36.58;97854.97;5025243;28;20028;-75
2022/02/26 06:58:53;;;;;;;57.38;28.20;;;;;;;13.64;36.59;97847.84;5044220;28;20031;-85
2022/02/26 07:01:19;;;;;;;54.67;29.27;;;;;;;14.48;35.27;97857.06;5041641;28;20451;-86
2022/02/26 07:03:45;;;;;;;54.70;29.65;;;;;;;14.29;35.47;97856.63;5023831;28;20024;-84
2022/02/26 07:06:10;;;;;;;58.38;31.17;;;;;;;14.62;34.64;97848.84;5021551;28;20025;-75
2022/02/26 07:08:36;;;;;;;63.42;33.85;;;;;;;14.71;34.42;97846.44;5032949;28;20032;-83
2022/02/26 07:11:01;;;;;;;64.95;33.72;;;;;;;14.70;34.70;97847.41;5034954;28;20162;-84
2022/02/26 07:13:27;;;;;;;67.07;35.83;;;;;;;14.83;34.68;97867.06;5030591;28;20049;-78
2022/02/26 07:15:53;;;;;;;67.35;37.97;;;;;;;15.05;34.17;97856.41;5064391;28;20090;-83
2022/02/26 07:18:18;;;;;;;68.85;37.05;;;;;;;15.19;33.44;97858.94;5033029;28;20111;-84
2022/02/26 07:20:44;;;;;;;78.20;40.85;;;;;;;14.40;34.84;97872.91;5036496;28;20060;-84
2022/02/26 07:23:10;;;;;;;79.95;41.05;;;;;;;14.61;35.04;97878.59;5039524;28;20051;-83
2022/02/26 07:25:36;;;;;;;70.63;41.03;;;;;;;15.09;34.43;97871.38;5027107;28;20028;-83
2022/02/26 07:28:01;;;;;;;90.72;46.95;;;;;;;15.31;33.95;97860.72;5027521;28;20542;-84
2022/02/26 07:30:27;;;;;;;126.63;73.70;;;;;;;15.61;33.50;97846.75;5031955;28;20041;-86
2022/02/26 07:32:52;;;;;;;82.65;47.85;;;;;;;15.44;33.70;97848.00;5023262;28;20128;-85
2022/02/26 07:35:18;;;;;;;85.70;47.60;;;;;;;15.08;34.05;97840.03;5039825;28;20033;-83
2022/02/26 07:37:44;;;;;;;74.68;45.63;;;;;;;15.21;33.40;97840.81;5039172;28;20028;-83
2022/02/26 07:40:11;;;;;;;78.68;46.60;;;;;;;14.91;33.92;97841.31;5022864;28;20017;-83
2022/02/26 07:42:37;;;;;;;81.82;43.85;;;;;;;13.85;35.21;97846.34;5025118;28;20063;-82
2022/02/26 07:45:04;;;;;;;74.72;44.83;;;;;;;13.94;35.59;97844.81;5051145;28;20060;-84
2022/02/26 07:47:30;;;;;;;78.63;43.53;;;;;;;14.00;35.15;97839.00;5031674;28;20036;-83
2022/02/26 07:49:56;;;;;;;81.55;44.53;;;;;;;14.62;34.54;97845.28;5035494;28;20465;-84
2022/02/26 07:52:22;;;;;;;78.20;45.13;;;;;;;14.26;34.56;97858.69;5039037;28;20032;-83
2022/02/26 07:54:51;;;;;;;111.55;55.10;;;;;;;14.61;34.75;97847.09;5033456;28;20025;-83
2022/02/26 07:57:20;;;;;;;75.55;42.08;;;;;;;14.93;34.50;97846.56;5039154;28;20029;-83
2022/02/26 07:59:45;;;;;;;65.63;35.55;;;;;;;13.46;35.78;97858.03;5038526;28;20031;-85
2022/02/26 08:02:11;;;;;;;56.38;34.10;;;;;;;13.17;36.68;97859.16;5055675;28;20037;-84
2022/02/26 08:04:37;;;;;;;49.72;28.20;;;;;;;13.66;35.79;97847.75;5055465;28;20029;-83
2022/02/26 08:07:05;;;;;;;61.35;30.90;;;;;;;13.92;35.79;97850.31;5035834;28;20028;-84
2022/02/26 08:09:31;;;;;;;53.30;32.28;;;;;;;14.82;35.80;97859.97;5035310;28;20452;-83
2022/02/26 08:11:57;;;;;;;62.55;33.47;;;;;;;14.45;35.76;97846.53;5024311;28;20049;-84
2022/02/26 08:14:23;;;;;;;47.85;26.35;;;;;;;15.21;34.32;97830.03;5034487;28;20090;-84
2022/02/26 08:16:49;;;;;;;31.55;16.55;;;;;;;15.43;32.73;97840.91;5037676;28;20024;-84
2022/02/26 08:19:14;;;;;;;44.97;21.58;;;;;;;15.99;32.69;97822.16;5025291;28;20493;-84
2022/02/26 08:21:40;;;;;;;36.72;22.25;;;;;;;17.38;30.61;97845.75;5044236;28;20048;-83
2022/02/26 08:24:06;;;;;;;32.33;17.83;;;;;;;17.24;30.12;97833.41;5029278;28;20025;-83
2022/02/26 08:26:32;;;;;;;29.23;17.35;;;;;;;17.30;30.28;97822.06;5030170;28;20476;-84
2022/02/26 08:28:58;;;;;;;31.67;16.30;;;;;;;17.26;29.94;97814.34;5024888;28;20484;-85
2022/02/26 08:31:23;;;;;;;38.90;19.15;;;;;;;17.52;29.88;97831.94;5039742;28;20051;-84
2022/02/26 08:33:49;;;;;;;22.15;14.25;;;;;;;17.81;28.84;97816.75;5026138;28;20056;-83
2022/02/26 08:36:15;;;;;;;22.92;13.63;;;;;;;18.68;28.04;97812.63;5033886;28;20020;-85
2022/02/26 08:38:41;;;;;;;20.38;11.52;;;;;;;19.29;27.42;97809.69;5029089;28;20569;-84
2022/02/26 08:41:06;;;;;;;20.77;10.45;;;;;;;18.13;28.35;97813.97;5042354;28;20032;-85
2022/02/26 08:43:32;;;;;;;29.00;17.67;;;;;;;16.86;30.70;97826.78;5020349;28;20027;-85
2022/02/26 08:45:58;;;;;;;31.55;18.35;;;;;;;17.87;29.84;97816.22;5014795;28;20120;-85
2022/02/26 08:48:23;;;;;;;34.80;19.20;;;;;;;18.82;29.50;97812.25;5044772;28;21580;-84
2022/02/26 08:50:49;;;;;;;34.35;18.05;;;;;;;19.01;28.68;97800.53;5028331;28;20033;-84
2022/02/26 08:53:15;;;;;;;28.80;17.88;;;;;;;18.83;28.96;97797.69;5033033;28;20070;-84
2022/02/26 08:55:40;;;;;;;32.17;18.55;;;;;;;18.13;30.00;97811.25;5028286;28;20133;-75
2022/02/26 08:58:06;;;;;;;32.63;17.73;;;;;;;17.97;30.17;97813.59;5067239;28;20416;-75
2022/02/26 09:00:32;;;;;;;35.92;16.60;;;;;;;18.80;28.98;97799.81;5050924;28;20036;-77
2022/02/26 09:02:57;;;;;;;37.60;17.95;;;;;;;19.23;28.53;97792.16;5026625;28;20028;-77
2022/02/26 09:05:23;;;;;;;25.42;16.70;;;;;;;19.16;28.88;97799.16;5041016;28;20029;-76
2022/02/26 09:07:48;;;;;;;29.38;18.48;;;;;;;19.36;29.17;97800.00;5059246;28;20037;-76
2022/02/26 09:10:14;;;;;;;31.00;17.48;;;;;;;18.12;30.58;97801.41;5076426;28;20075;-78
2022/02/26 09:12:40;;;;;;;31.52;18.70;;;;;;;17.21;31.92;97798.50;5026270;28;20041;-75
2022/02/26 09:15:06;;;;;;;33.85;20.00;;;;;;;18.27;33.47;97813.59;5036273;28;20033;-80
2022/02/26 09:17:32;;;;;;;27.30;15.55;;;;;;;18.86;31.12;97810.94;5017289;28;20175;-75
2022/02/26 09:19:57;;;;;;;23.27;14.35;;;;;;;18.63;31.24;97806.78;5055671;28;20085;-74
2022/02/26 09:22:23;;;;;;;27.38;15.00;;;;;;;18.78;31.51;97810.81;5014222;28;20034;-75
2022/02/26 09:24:48;;;;;;;26.08;14.02;;;;;;;18.02;32.11;97810.47;5040899;28;20077;-74
2022/02/26 09:27:14;;;;;;;29.85;16.23;;;;;;;17.74;32.92;97814.75;5042430;28;20412;-77
2022/02/26 09:29:40;;;;;;;24.75;14.30;;;;;;;17.44;33.83;97810.09;5028785;28;20116;-75
2022/02/26 09:32:07;;;;;;;19.60;11.07;;;;;;;17.18;33.94;97814.13;5035774;28;20033;-75
2022/02/26 09:34:32;;;;;;;19.77;12.82;;;;;;;17.50;34.22;97814.97;5065781;28;20028;-75
2022/02/26 09:36:58;;;;;;;18.90;11.63;;;;;;;17.27;33.42;97808.81;5036577;28;20515;-80
2022/02/26 09:39:24;;;;;;;22.52;12.07;;;;;;;18.67;31.33;97802.78;5022526;28;20426;-79
2022/02/26 09:41:50;;;;;;;20.65;10.80;;;;;;;18.35;30.57;97788.53;5021777;28;20528;-75
2022/02/26 09:44:16;;;;;;;15.15;10.20;;;;;;;16.99;33.15;97804.00;5024238;28;20036;-75
2022/02/26 09:46:42;;;;;;;26.42;12.35;;;;;;;17.66;32.49;97807.28;5014515;28;20037;-74
2022/02/26 09:49:09;;;;;;;22.25;11.85;;;;;;;16.44;33.41;97802.28;5028532;28;20020;-77
2022/02/26 09:51:42;;;;;;;18.77;11.75;;;;;;;15.70;34.84;97808.28;5041825;28;20189;-76
2022/02/26 09:54:08;;;;;;;20.05;11.63;;;;;;;16.39;34.04;97799.09;5029159;28;20029;-74
2022/02/26 09:56:34;;;;;;;20.45;12.00;;;;;;;16.63;34.05;97807.06;5039006;28;20043;-74
2022/02/26 09:59:00;;;;;;;18.42;11.50;;;;;;;17.86;32.83;97805.56;5066755;28;20032;-74
2022/02/26 10:01:26;;;;;;;23.58;10.73;;;;;;;17.62;31.87;97795.03;5049694;28;20039;-74
2022/02/26 10:04:05;;;;;;;20.80;11.77;;;;;;;18.97;30.85;97790.16;5033483;28;20470;-76
2022/02/26 10:06:31;;;;;;;19.38;12.30;;;;;;;18.26;32.26;97790.22;5049976;28;20465;-74
2022/02/26 10:08:58;;;;;;;30.58;15.75;;;;;;;19.18;30.81;97785.44;5059608;28;20032;-76
2022/02/26 10:11:29;;;;;;;31.70;15.02;;;;;;;20.76;28.64;97777.34;5025796;28;20040;-76
2022/02/26 10:14:07;;;;;;;26.27;13.27;;;;;;;21.14;28.28;97778.94;5028583;28;20086;-76
2022/02/26 10:16:51;;;;;;;23.02;13.25;;;;;;;18.88;30.05;97778.28;5059462;28;20047;-75
2022/02/26 10:19:31;;;;;;;21.38;11.32;;;;;;;16.35;33.48;97785.97;5061277;28;20025;-75
2022/02/26 10:22:08;;;;;;;23.40;12.48;;;;;;;17.02;33.23;97798.34;5030819;28;20036;-75
2022/02/26 10:24:35;;;;;;;34.42;12.68;;;;;;;17.85;32.62;97791.16;5043864;28;20035;-75
2022/02/26 10:27:06;;;;;;;35.40;16.10;;;;;;;18.36;31.89;97787.56;5047570;28;20024;-76
2022/02/26 10:29:36;;;;;;;43.58;19.65;;;;;;;19.22;30.42;97785.03;5044428;28;20029;-75
2022/02/26 10:32:03;;;;;;;24.88;14.73;;;;;;;19.09;30.02;97770.03;5038684;28;20074;-75
2022/02/26 10:34:40;;;;;;;25.52;10.80;;;;;;;19.09;29.65;97772.75;5041007;28;20032;-74
2022/02/26 10:37:17;;;;;;;17.15;9.88;;;;;;;15.45;34.39;97790.41;5039156;28;20032;-76
2022/02/26 10:39:55;;;;;;;20.30;10.10;;;;;;;15.44;34.80;97782.47;5049682;28;20013;-75
2022/02/26 10:42:33;;;;;;;18.63;10.18;;;;;;;15.35;35.03;97780.47;5052175;28;20043;-75
2022/02/26 10:44:59;;;;;;;20.70;10.25;;;;;;;17.30;32.62;97786.06;5028164;28;20059;-75
2022/02/26 10:47:27;;;;;;;21.95;10.45;;;;;;;18.36;31.51;97769.41;5054919;28;20060;-75
2022/02/26 10:49:53;;;;;;;17.02;10.27;;;;;;;19.32;29.72;97761.44;5053241;28;20020;-75
2022/02/26 10:52:18;;;;;;;17.58;9.95;;;;;;;20.11;28.59;97758.44;5050711;28;20440;-76
2022/02/26 10:54:51;;;;;;;21.48;10.45;;;;;;;20.60;27.67;97740.94;5050402;28;20044;-77
2022/02/26 10:57:17;;;;;;;24.70;13.20;;;;;;;20.81;26.53;97736.06;5053331;28;20036;-76
2022/02/26 10:59:44;;;;;;;20.42;9.98;;;;;;;18.68;29.90;97749.44;5039310;28;20479;-76
2022/02/26 11:02:18;;;;;;;18.63;10.75;;;;;;;20.06;28.77;97748.00;5060116;28;20040;-75
2022/02/26 11:04:44;;;;;;;19.00;10.30;;;;;;;20.66;27.58;97735.75;5059919;28;20028;-75
2022/02/26 11:07:10;;;;;;;17.60;10.77;;;;;;;19.62;29.12;97741.47;5070169;28;20477;-76
2022/02/26 11:09:39;;;;;;;17.58;9.15;;;;;;;19.74;28.64;97751.16;5038724;28;20025;-76
2022/02/26 11:12:05;;;;;;;20.88;10.70;;;;;;;20.78;27.66;97737.22;5067411;28;20048;-76
2022/02/26 11:14:33;;;;;;;18.65;8.98;;;;;;;19.33;29.57;97741.47;5032693;28;20039;-76